Time;durP1;ratioP1;P1;durP2;ratioP2;P2;SDS_P1;SDS_P2;PMS_P1;PMS_P2;Temp;Humidity;BMP_temperature;BMP_pressure;BME280_temperature;BME280_humidity;BME280_pressure;Samples;Min_cycle;Max_cycle;Signal;HPM_P1;HPM_P2
2022/10/26 00:00:23;;;;;;;;;;;;;;;8.91;100.00;67758.72;4948756;28;19914;-80
2022/10/26 00:02:48;;;;;;;;;;;;;;;;;;4939543;29;19921;-81
2022/10/26 00:05:14;;;;;;;;;;;;;;;9.00;100.00;67774.22;4950179;28;19926;-82
2022/10/26 00:07:39;;;;;;;;;;;;;;;9.01;100.00;67767.41;4951994;29;19921;-82
2022/10/26 00:10:04;;;;;;;;;;;;;;;;;;4951511;29;19924;-82
2022/10/26 00:12:29;;;;;;;;;;;;;;;9.07;100.00;67775.72;4952039;29;20321;-82
2022/10/26 00:14:54;;;;;;;;;;;;;;;;;;4957532;28;19922;-82
2022/10/26 00:17:19;;;;;;;;;;;;;;;;;;4939518;28;19915;-81
2022/10/26 00:19:45;;;;;;;;;;;;;;;;;;4950580;29;19953;-82
2022/10/26 00:22:10;;;;;;;;;;;;;;;;;;4952499;29;19914;-82
2022/10/26 00:24:35;;;;;;;;;;;;;;;9.10;100.00;67779.69;4920351;29;19915;-83
2022/10/26 00:27:00;;;;;;;;;;;;;;;;;;4946779;28;19953;-83
2022/10/26 00:29:25;;;;;;;;;;;;;;;;;;4946365;29;19918;-82
2022/10/26 00:31:50;;;;;;;;;;;;;;;8.99;100.00;67777.84;4954072;28;19944;-83
2022/10/26 00:34:15;;;;;;;;;;;;;;;8.92;100.00;67765.16;4934600;29;19929;-82
2022/10/26 00:36:41;;;;;;;;;;;;;;;8.90;100.00;67762.34;4954968;29;19914;-84
2022/10/26 00:39:06;;;;;;;;;;;;;;;8.89;100.00;67753.81;4949108;28;19922;-83
2022/10/26 00:41:33;;;;;;;;;;;;;;;8.90;100.00;67762.34;4954785;28;19915;-82
2022/10/26 00:43:59;;;;;;;;;;;;;;;8.89;100.00;67755.88;4948825;29;20024;-82
2022/10/26 00:46:24;;;;;;;;;;;;;;;;;;4956198;29;20294;-81
2022/10/26 00:48:49;;;;;;;;;;;;;;;;;;4959893;29;19920;-82
2022/10/26 00:51:19;;;;;;;;;;;;;;;8.85;100.00;67756.66;4958310;28;20012;-82
2022/10/26 00:53:45;;;;;;;;;;;;;;;8.91;100.00;67763.47;4957640;28;19985;-82
2022/10/26 00:56:10;;;;;;;;;;;;;;;;;;4957243;28;20370;-82
2022/10/26 00:58:35;;;;;;;;;;;;;;;;;;4958633;28;19925;-83
2022/10/26 01:01:00;;;;;;;;;;;;;;;8.98;100.00;67766.09;4961326;29;19915;-83
2022/10/26 01:03:26;;;;;;;;;;;;;;;8.96;100.00;67769.13;4960092;29;19925;-84
2022/10/26 01:05:53;;;;;;;;;;;;;;;;;;4959149;28;19946;-83
2022/10/26 01:08:18;;;;;;;;;;;;;;;8.98;100.00;67764.00;4959401;28;19937;-83
2022/10/26 01:10:44;;;;;;;;;;;;;;;9.02;100.00;67771.19;4959166;29;20428;-83
2022/10/26 01:13:11;;;;;;;;;;;;;;;9.01;100.00;67770.06;4958539;29;19920;-82
2022/10/26 01:15:36;;;;;;;;;;;;;;;;;;4952647;28;19929;-85
2022/10/26 01:18:15;;;;;;;;;;;;;;;9.05;100.00;67779.31;4945911;29;19921;-81
2022/10/26 01:20:57;;;;;;;;;;;;;;;9.07;100.00;67776.28;4958887;28;20386;-83
2022/10/26 01:23:28;;;;;;;;;;;;;;;9.11;100.00;67780.81;4926320;29;20014;-82
2022/10/26 01:25:53;;;;;;;;;;;;;;;;;;4956581;28;19914;-82
2022/10/26 01:28:30;;;;;;;;;;;;;;;9.18;100.00;67788.19;4955375;28;20005;-82
2022/10/26 01:30:57;;;;;;;;;;;;;;;9.16;100.00;67786.47;4947581;29;20627;-84
2022/10/26 01:33:22;;;;;;;;;;;;;;;;;;4947490;28;19918;-82
2022/10/26 01:35:51;;;;;;;;;;;;;;;9.21;100.00;67792.16;4956874;28;19946;-82
2022/10/26 01:38:16;;;;;;;;;;;;;;;;;;4955894;29;19914;-82
2022/10/26 01:40:41;;;;;;;;;;;;;;;;;;4957100;29;20045;-83
2022/10/26 01:43:09;;;;;;;;;;;;;;;9.34;100.00;67805.75;4957957;29;20440;-82
2022/10/26 01:45:36;;;;;;;;;;;;;;;9.36;100.00;67808.59;4944334;28;19982;-81
2022/10/26 01:48:01;;;;;;;;;;;;;;;;;;4932561;29;19997;-85
2022/10/26 01:50:26;;;;;;;;;;;;;;;;;;4954758;28;20005;-83
2022/10/26 01:52:52;;;;;;;;;;;;;;;9.47;100.00;67825.81;4955245;29;19918;-86
2022/10/26 01:55:17;;;;;;;;;;;;;;;;;;4953097;29;19924;-83
2022/10/26 01:57:43;;;;;;;;;;;;;;;9.54;100.00;67828.44;4953429;29;19918;-82
2022/10/26 02:00:09;;;;;;;;;;;;;;;9.56;100.00;67830.69;4954516;29;19934;-82
2022/10/26 02:02:58;;;;;;;;;;;;;;;9.59;100.00;67839.41;4950627;29;21854;-83
2022/10/26 02:05:23;;;;;;;;;;;;;;;9.63;100.00;67835.97;4943659;29;20036;-83
2022/10/26 02:07:48;;;;;;;;;;;;;;;;;;4953257;29;19943;-83
2022/10/26 02:10:29;;;;;;;;;;;;;;;9.66;100.00;67847.34;4936312;29;20001;-83
2022/10/26 02:13:14;;;;;;;;;;;;;;;9.68;100.00;67844.28;4953045;29;20066;-83
2022/10/26 02:15:55;;;;;;;;;;;;;;;9.73;100.00;67854.72;4951711;28;19925;-83
2022/10/26 02:18:31;;;;;;;;;;;;;;;9.75;100.00;67849.00;4923113;29;19915;-83
2022/10/26 02:20:56;;;;;;;;;;;;;;;;;;4951908;29;20005;-83
2022/10/26 02:23:23;;;;;;;;;;;;;;;9.78;100.00;67859.81;4952183;28;20009;-82
2022/10/26 02:25:50;;;;;;;;;;;;;;;9.80;100.00;67856.78;4932746;29;19918;-84
2022/10/26 02:28:21;;;;;;;;;;;;;;;9.82;100.00;67859.03;4948560;28;20014;-83
2022/10/26 02:30:48;;;;;;;;;;;;;;;;;;4943039;28;19942;-84
2022/10/26 02:33:13;;;;;;;;;;;;;;;;;;4945973;28;19922;-84
2022/10/26 02:35:38;;;;;;;;;;;;;;;;;;4953716;29;19914;-84
2022/10/26 02:38:06;;;;;;;;;;;;;;;9.86;100.00;67864.13;4933473;29;19922;-84
2022/10/26 02:40:31;;;;;;;;;;;;;;;9.86;100.00;67864.13;4941908;29;19962;-84
2022/10/26 02:43:00;;;;;;;;;;;;;;;9.88;100.00;67871.16;4934781;29;19926;-83
2022/10/26 02:45:29;;;;;;;;;;;;;;;9.89;100.00;67872.28;4935127;29;19922;-83
2022/10/26 02:47:55;;;;;;;;;;;;;;;9.90;100.00;67873.44;4947669;29;19922;-84
2022/10/26 02:50:23;;;;;;;;;;;;;;;9.92;100.00;67867.72;4953423;29;20370;-84
2022/10/26 02:52:48;;;;;;;;;;;;;;;9.95;100.00;67873.78;4926228;29;19921;-84
2022/10/26 02:55:19;;;;;;;;;;;;;;;9.96;100.00;67874.38;4953347;29;19919;-84
2022/10/26 02:57:46;;;;;;;;;;;;;;;9.96;100.00;67874.38;4966674;29;19921;-84
2022/10/26 03:00:16;;;;;;;;;;;;;;;9.97;100.00;67876.06;4968329;28;19953;-83
2022/10/26 03:02:43;;;;;;;;;;;;;;;9.99;100.00;67875.09;4950654;28;20422;-84
2022/10/26 03:05:19;;;;;;;;;;;;;;;10.01;100.00;67877.94;4961066;28;19925;-84
2022/10/26 03:07:44;;;;;;;;;;;;;;;10.02;100.00;67881.16;4948570;29;19914;-84
2022/10/26 03:10:10;;;;;;;;;;;;;;;10.03;100.00;67888.16;4948498;29;19914;-82
2022/10/26 03:12:35;;;;;;;;;;;;;;;;;;4933702;29;19954;-82
2022/10/26 03:15:00;;;;;;;;;;;;;;;10.05;100.00;67885.13;4952193;28;19918;-83
2022/10/26 03:17:26;;;;;;;;;;;;;;;10.05;100.00;67890.44;4951121;29;19921;-84
2022/10/26 03:19:51;;;;;;;;;;;;;;;10.05;100.00;67889.88;4934775;29;20013;-85
2022/10/26 03:22:16;;;;;;;;;;;;;;;10.05;100.00;67884.56;4927180;29;19965;-84
2022/10/26 03:24:41;;;;;;;;;;;;;;;;;;4952316;28;19918;-84
2022/10/26 03:27:06;;;;;;;;;;;;;;;;;;4943725;29;19914;-84
2022/10/26 03:29:31;;;;;;;;;;;;;;;;;;4937200;29;19922;-83
2022/10/26 03:31:57;;;;;;;;;;;;;;;10.05;100.00;67884.56;4934125;29;19914;-83
2022/10/26 03:34:22;;;;;;;;;;;;;;;;;;4952373;28;20390;-83
2022/10/26 03:36:47;;;;;;;;;;;;;;;10.07;100.00;67884.16;4952504;28;19914;-84
2022/10/26 03:39:13;;;;;;;;;;;;;;;10.06;100.00;67886.25;4952068;29;19914;-83
2022/10/26 03:41:38;;;;;;;;;;;;;;;;;;4922284;29;20009;-84
2022/10/26 03:44:03;;;;;;;;;;;;;;;10.07;100.00;67884.16;4939260;29;19997;-83
2022/10/26 03:46:29;;;;;;;;;;;;;;;10.05;100.00;67884.56;4919665;28;19921;-84
2022/10/26 03:48:54;;;;;;;;;;;;;;;10.02;100.00;67881.72;4951301;28;19914;-83
2022/10/26 03:51:28;;;;;;;;;;;;;;;10.02;100.00;67886.47;4953163;29;19915;-84
2022/10/26 03:53:53;;;;;;;;;;;;;;;10.00;100.00;67884.78;4943769;28;19918;-83
2022/10/26 03:56:18;;;;;;;;;;;;;;;9.98;100.00;67876.63;4946889;29;20397;-84
2022/10/26 03:58:43;;;;;;;;;;;;;;;;;;4951291;28;19918;-84
2022/10/26 04:01:09;;;;;;;;;;;;;;;9.98;100.00;67877.19;4945253;29;19915;-85
2022/10/26 04:03:34;;;;;;;;;;;;;;;;;;4953103;28;19918;-85
2022/10/26 04:06:00;;;;;;;;;;;;;;;10.01;100.00;67880.59;4953727;29;20383;-84
2022/10/26 04:08:28;;;;;;;;;;;;;;;10.00;100.00;67878.88;4934757;29;19919;-86
2022/10/26 04:10:53;;;;;;;;;;;;;;;10.01;100.00;67880.59;4952185;28;19922;-84
2022/10/26 04:13:19;;;;;;;;;;;;;;;10.02;100.00;67881.16;4947303;28;20374;-84
2022/10/26 04:15:44;;;;;;;;;;;;;;;10.03;100.00;67882.28;4924600;29;19927;-83
2022/10/26 04:18:11;;;;;;;;;;;;;;;10.05;100.00;67889.88;4949132;29;20009;-84
2022/10/26 04:20:37;;;;;;;;;;;;;;;10.06;100.00;67891.00;4952603;29;19914;-84
2022/10/26 04:23:03;;;;;;;;;;;;;;;10.08;100.00;67893.28;4936871;28;19970;-84
2022/10/26 04:25:29;;;;;;;;;;;;;;;10.09;100.00;67886.44;4932973;29;19918;-83
2022/10/26 04:27:55;;;;;;;;;;;;;;;;;;4950836;29;19921;-85
2022/10/26 04:30:25;;;;;;;;;;;;;;;10.11;100.00;67891.94;4950596;29;19914;-83
2022/10/26 04:32:51;;;;;;;;;;;;;;;;;;4946042;28;19915;-83
2022/10/26 04:35:16;;;;;;;;;;;;;;;10.13;100.00;67899.53;4949614;28;19919;-82
2022/10/26 04:37:42;;;;;;;;;;;;;;;10.15;100.00;67896.47;4946514;29;19925;-83
2022/10/26 04:40:07;;;;;;;;;;;;;;;10.16;100.00;67894.94;4955055;28;20303;-84
2022/10/26 04:42:39;;;;;;;;;;;;;;;10.18;100.00;67899.28;4962235;28;19974;-84
2022/10/26 04:45:04;;;;;;;;;;;;;;;;;;4949830;28;19914;-84
2022/10/26 04:47:30;;;;;;;;;;;;;;;10.22;100.00;67903.84;4949291;29;19914;-83
2022/10/26 04:49:55;;;;;;;;;;;;;;;;;;4931892;29;20233;-83
2022/10/26 04:52:20;;;;;;;;;;;;;;;10.28;100.00;67910.66;4950786;29;19970;-84
2022/10/26 04:54:45;;;;;;;;;;;;;;;10.31;100.00;67914.06;4952302;28;19928;-85
2022/10/26 04:57:10;;;;;;;;;;;;;;;10.34;100.00;67917.47;4938182;29;20010;-85
2022/10/26 04:59:36;;;;;;;;;;;;;;;10.35;100.00;67923.38;4933010;29;20009;-85
2022/10/26 05:02:01;;;;;;;;;;;;;;;;;;4951268;29;19925;-84
2022/10/26 05:04:26;;;;;;;;;;;;;;;10.40;100.00;67931.69;4934658;29;20442;-84
2022/10/26 05:06:52;;;;;;;;;;;;;;;10.42;100.00;67923.34;4958572;28;19926;-83
2022/10/26 05:09:17;;;;;;;;;;;;;;;10.45;100.00;67926.16;4962720;28;19914;-86
2022/10/26 05:11:43;;;;;;;;;;;;;;;10.46;100.00;67930.53;4958018;29;19925;-83
2022/10/26 05:14:08;;;;;;;;;;;;;;;10.48;100.00;67932.81;4957801;28;19918;-84
2022/10/26 05:16:33;;;;;;;;;;;;;;;10.49;100.00;67931.25;4952338;28;20467;-84
2022/10/26 05:18:58;;;;;;;;;;;;;;;;;;4952361;28;19914;-83
2022/10/26 05:21:24;;;;;;;;;;;;;;;10.52;100.00;67942.66;4952243;29;19993;-84
2022/10/26 05:23:51;;;;;;;;;;;;;;;10.54;100.00;67944.38;4936551;29;19961;-85
2022/10/26 05:26:16;;;;;;;;;;;;;;;;;;4949398;28;19919;-84
2022/10/26 05:28:41;;;;;;;;;;;;;;;;;;4954356;29;19991;-83
2022/10/26 05:31:06;;;;;;;;;;;;;;;10.58;100.00;67943.56;4957151;29;19915;-84
2022/10/26 05:33:31;;;;;;;;;;;;;;;10.60;100.00;67946.41;4955190;28;19919;-83
2022/10/26 05:35:57;;;;;;;;;;;;;;;10.61;100.00;67944.31;4956448;29;19953;-86
2022/10/26 05:38:22;;;;;;;;;;;;;;;10.60;100.00;67946.41;4939318;28;19914;-84
2022/10/26 05:40:51;;;;;;;;;;;;;;;10.61;100.00;67947.53;4956431;28;19914;-83
2022/10/26 05:43:17;;;;;;;;;;;;;;;10.64;100.00;67949.81;4944464;29;20378;-82
2022/10/26 05:45:42;;;;;;;;;;;;;;;10.64;100.00;67949.81;4954751;29;19918;-84
2022/10/26 05:48:07;;;;;;;;;;;;;;;;;;4955851;29;19949;-83
2022/10/26 05:50:33;;;;;;;;;;;;;;;;;;4954904;29;19937;-84
2022/10/26 05:52:58;;;;;;;;;;;;;;;;;;4955875;28;19914;-84
2022/10/26 05:55:23;;;;;;;;;;;;;;;10.56;100.00;67941.31;4955230;29;19997;-84
2022/10/26 05:57:49;;;;;;;;;;;;;;;10.53;100.00;67938.47;4950143;29;19960;-83
2022/10/26 06:00:14;;;;;;;;;;;;;;;;;;4955142;29;19921;-84
2022/10/26 06:02:58;;;;;;;;;;;;;;;10.49;100.00;67931.25;4953205;28;19914;-84
2022/10/26 06:05:25;;;;;;;;;;;;;;;10.47;100.00;67929.00;4947827;28;20056;-83
2022/10/26 06:07:50;;;;;;;;;;;;;;;10.45;100.00;67928.84;4953254;28;19953;-83
2022/10/26 06:10:16;;;;;;;;;;;;;;;10.45;100.00;67934.72;4947479;29;20323;-84
2022/10/26 06:12:41;;;;;;;;;;;;;;;10.38;100.00;67926.75;4953394;29;20004;-84
2022/10/26 06:15:08;;;;;;;;;;;;;;;10.40;100.00;67923.72;4952815;28;19918;-84
2022/10/26 06:17:54;;;;;;;;;;;;;;;10.40;100.00;67921.06;4950444;29;19915;-83
2022/10/26 06:20:32;;;;;;;;;;;;;;;10.42;100.00;67925.44;4949106;29;20334;-84
2022/10/26 06:23:12;;;;;;;;;;;;;;;10.41;100.00;67922.19;4953828;29;19926;-85
2022/10/26 06:25:57;;;;;;;;;;;;;;;10.42;100.00;67930.75;4954176;29;20444;-83
2022/10/26 06:28:40;;;;;;;;;;;;;;;10.39;100.00;67922.59;4952739;29;20603;-84
2022/10/26 06:31:08;;;;;;;;;;;;;;;10.30;100.00;67912.38;4954060;29;19918;-84
2022/10/26 06:33:34;;;;;;;;;;;;;;;;;;4952885;28;20638;-84
2022/10/26 06:36:12;;;;;;;;;;;;;;;10.24;100.00;67906.13;4953698;28;19953;-84
2022/10/26 06:38:38;;;;;;;;;;;;;;;10.16;100.00;67897.59;4948909;29;19914;-84
2022/10/26 06:41:04;;;;;;;;;;;;;;;10.14;100.00;67895.34;4952616;28;19914;-84
2022/10/26 06:43:31;;;;;;;;;;;;;;;10.12;100.00;67893.06;4953976;28;20410;-85
2022/10/26 06:46:05;;;;;;;;;;;;;;;10.10;100.00;67887.59;4955210;28;19922;-85
2022/10/26 06:48:33;;;;;;;;;;;;;;;10.12;100.00;67898.38;4939796;29;20027;-85
2022/10/26 06:50:59;;;;;;;;;;;;;;;10.11;100.00;67891.94;4946874;29;19914;-83
2022/10/26 06:53:34;;;;;;;;;;;;;;;10.17;100.00;67903.50;4946504;29;19922;-84
2022/10/26 06:55:59;;;;;;;;;;;;;;;;;;4946428;29;19969;-85
2022/10/26 06:58:29;;;;;;;;;;;;;;;10.30;100.00;67912.38;4953347;29;19922;-84
2022/10/26 07:00:55;;;;;;;;;;;;;;;10.36;100.00;67916.53;4954073;29;19930;-84
2022/10/26 07:03:20;;;;;;;;;;;;;;;10.39;100.00;67922.59;4955167;29;19918;-85
2022/10/26 07:05:45;;;;;;;;;;;;;;;;;;4954426;29;19929;-84
2022/10/26 07:08:11;;;;;;;;;;;;;;;10.50;100.00;67932.41;4937993;29;19914;-84
2022/10/26 07:10:38;;;;;;;;;;;;;;;10.56;100.00;67936.56;4953259;29;20005;-84
2022/10/26 07:13:06;;;;;;;;;;;;;;;10.64;100.00;67950.38;4954925;28;19914;-84
2022/10/26 07:15:32;;;;;;;;;;;;;;;10.68;100.00;67952.25;4953502;28;19926;-84
2022/10/26 07:17:57;;;;;;;;;;;;;;;10.73;100.00;67960.03;4954319;28;20302;-84
2022/10/26 07:20:22;;;;;;;;;;;;;;;10.80;100.00;67967.97;4968374;29;19914;-84
2022/10/26 07:22:51;;;;;;;;;;;;;;;10.86;100.00;67972.13;4963661;29;19911;-84
2022/10/26 07:25:17;;;;;;;;;;;;;;;10.91;100.00;67980.47;4890654;29;19942;-85
2022/10/26 07:27:42;;;;;;;;;;;;;;;10.98;100.00;67993.72;4884406;29;19920;-84
2022/10/26 07:30:07;;;;;;;;;;;;;;;11.05;100.00;67996.34;4901454;29;19911;-84
2022/10/26 07:32:33;;;;;;;;;;;;;;;11.09;100.00;67997.09;4903596;29;20021;-85
2022/10/26 07:34:58;;;;;;;;;;;;;;;11.15;100.00;68003.91;4890169;29;20355;-83
2022/10/26 07:37:23;;;;;;;;;;;;;;;;;;4878544;29;19955;-83
2022/10/26 07:39:48;;;;;;;;;;;;;;;11.19;100.00;68011.69;4875249;29;19915;-83
2022/10/26 07:42:14;;;;;;;;;;;;;;;11.25;100.00;68023.81;4872578;29;19916;-83
2022/10/26 07:44:39;;;;;;;;;;;;;;;;;;4881045;29;19916;-84
2022/10/26 07:47:05;;;;;;;;;;;;;;;11.33;100.00;68027.00;4873070;29;19924;-83
2022/10/26 07:49:30;;;;;;;;;;;;;;;11.39;100.00;68033.25;4870325;29;19915;-83
2022/10/26 07:51:55;;;;;;;;;;;;;;;11.45;100.00;68037.97;4872276;29;19933;-85
2022/10/26 07:54:20;;;;;;;;;;;;;;;11.49;100.00;68049.94;4872254;29;20444;-83
2022/10/26 07:56:45;;;;;;;;;;;;;;;;;;4904964;29;19918;-85
2022/10/26 07:59:12;;;;;;;;;;;;;;;11.61;100.00;68058.22;4951467;29;19914;-84
2022/10/26 08:01:37;;;;;;;;;;;;;;;11.66;100.00;68060.69;4950799;29;20378;-83
2022/10/26 08:04:02;;;;;;;;;;;;;;;;;;4951222;28;19925;-83
2022/10/26 08:06:27;;;;;;;;;;;;;;;11.82;100.00;68078.28;4951928;29;20397;-83
2022/10/26 08:08:52;;;;;;;;;;;;;;;11.90;100.00;68082.63;4950778;29;19924;-83
2022/10/26 08:11:18;;;;;;;;;;;;;;;11.98;100.00;68099.16;4950912;29;19989;-83
2022/10/26 08:13:43;;;;;;;;;;;;;;;12.01;100.00;68102.00;4933102;29;19918;-83
2022/10/26 08:16:08;;;;;;;;;;;;;;;12.04;100.00;68105.97;4950510;29;20453;-85
2022/10/26 08:18:34;;;;;;;;;;;;;;;12.08;100.00;68109.94;4934252;29;20010;-83
2022/10/26 08:20:59;;;;;;;;;;;;;;;;;;4953542;29;20342;-83
2022/10/26 08:23:24;;;;;;;;;;;;;;;;;;4950689;28;19918;-83
2022/10/26 08:25:49;;;;;;;;;;;;;;;12.40;100.00;68146.31;4950850;29;19921;-83
2022/10/26 08:28:14;;;;;;;;;;;;;;;12.52;100.00;68158.81;4949888;29;19965;-83
2022/10/26 08:30:39;;;;;;;;;;;;;;;12.59;100.00;68172.66;4941456;29;20336;-83
2022/10/26 08:33:06;;;;;;;;;;;;;;;12.60;100.00;68167.88;4932525;29;19918;-84
2022/10/26 08:35:32;;;;;;;;;;;;;;;12.69;100.00;68172.78;4932097;29;20408;-84
2022/10/26 08:37:57;;;;;;;;;;;;;;;12.77;100.00;68181.31;4946761;29;19998;-84
2022/10/26 08:40:27;;;;;;;;;;;;;;;12.87;100.00;68195.91;4949154;29;19918;-84
2022/10/26 08:42:56;;;;;;;;;;;;;;;13.00;100.00;68212.22;4941719;29;19921;-83
2022/10/26 08:45:22;;;;;;;;;;;;;;;13.14;100.00;68228.13;4948653;28;19914;-84
2022/10/26 08:47:49;;;;;;;;;;;;;;;13.26;100.00;68239.16;4947298;28;20014;-84
2022/10/26 08:50:24;;;;;;;;;;;;;;;13.35;100.00;68251.50;4949684;28;19974;-84
2022/10/26 08:52:49;;;;;;;;;;;;;;;;;;4949812;29;19938;-83
2022/10/26 08:55:16;;;;;;;;;;;;;;;13.49;100.00;68264.16;4950183;29;19918;-83
2022/10/26 08:57:46;;;;;;;;;;;;;;;13.60;100.00;68276.66;4947818;28;19914;-86
2022/10/26 09:00:14;;;;;;;;;;;;;;;13.68;100.00;68288.44;4951440;28;19965;-83
2022/10/26 09:02:40;;;;;;;;;;;;;;;13.76;100.00;68297.56;4952601;29;19986;-84
2022/10/26 09:05:13;;;;;;;;;;;;;;;13.85;100.00;68303.97;4935214;29;20569;-84
2022/10/26 09:07:47;;;;;;;;;;;;;;;13.93;100.00;68310.97;4951199;28;19915;-84
2022/10/26 09:10:12;;;;;;;;;;;;;;;13.98;100.00;68314.00;4953717;29;19922;-84
2022/10/26 09:12:37;;;;;;;;;;;;;;;14.06;100.00;68324.63;4952476;29;19914;-83
2022/10/26 09:15:21;;;;;;;;;;;;;;;14.28;100.00;68349.09;4953242;28;19922;-85
2022/10/26 09:18:05;;;;;;;;;;;;;;;14.32;100.00;68359.00;4951649;29;20408;-84
2022/10/26 09:20:37;;;;;;;;;;;;;;;14.38;100.00;68363.16;4945164;29;19915;-84
2022/10/26 09:23:22;;;;;;;;;;;;;;;14.46;100.00;68374.94;4934564;29;19914;-84
2022/10/26 09:25:52;;;;;;;;;;;;;;;14.50;100.00;68376.22;4942199;29;19914;-84
2022/10/26 09:28:18;;;;;;;;;;;;;;;14.55;100.00;68385.19;4952787;29;20441;-83
2022/10/26 09:30:44;;;;;;;;;;;;;;;14.61;100.00;68391.47;4934671;28;19918;-84
2022/10/26 09:33:11;;;;;;;;;;;;;;;;;;4927635;29;20338;-84
2022/10/26 09:35:42;;;;;;;;;;;;;;;14.63;100.00;68391.63;4952236;29;20382;-83
2022/10/26 09:38:19;;;;;;;;;;;;;;;14.68;100.00;68393.50;4953290;29;19915;-85
2022/10/26 09:40:49;;;;;;;;;;;;;;;14.74;100.00;68405.69;4953414;28;19950;-83
2022/10/26 09:43:27;;;;;;;;;;;;;;;14.79;100.00;68406.03;4953384;28;19920;-84
2022/10/26 09:45:53;;;;;;;;;;;;;;;14.83;100.00;68405.78;4935122;29;19914;-84
2022/10/26 09:48:33;;;;;;;;;;;;;;;14.91;100.00;68422.38;4954457;29;19918;-84
2022/10/26 09:50:59;;;;;;;;;;;;;;;14.99;100.00;68431.50;4913781;29;19914;-85
2022/10/26 09:53:24;;;;;;;;;;;;;;;15.08;100.00;68441.72;4953683;28;20398;-83
2022/10/26 09:55:59;;;;;;;;;;;;;;;15.19;100.00;68453.09;4954283;29;19926;-84
2022/10/26 09:58:29;;;;;;;;;;;;;;;15.30;100.00;68462.97;4952282;28;19926;-86
2022/10/26 10:00:54;;;;;;;;;;;;;;;15.43;100.00;68477.22;4953488;28;19921;-86
2022/10/26 10:03:23;;;;;;;;;;;;;;;15.53;99.86;68494.53;4931141;29;19919;-84
2022/10/26 10:05:48;;;;;;;;;;;;;;;15.64;99.95;68505.91;4951105;28;19915;-85
2022/10/26 10:08:15;;;;;;;;;;;;;;;15.70;98.84;68513.34;4954115;29;19922;-84
2022/10/26 10:10:58;;;;;;;;;;;;;;;15.79;98.62;68520.34;4953662;28;19922;-84
2022/10/26 10:13:29;;;;;;;;;;;;;;;15.86;98.10;68528.34;4953898;28;19915;-83
2022/10/26 10:16:05;;;;;;;;;;;;;;;15.91;97.58;68534.03;4953815;29;19919;-85
2022/10/26 10:18:31;;;;;;;;;;;;;;;15.99;98.74;68545.81;4950857;29;19962;-84
2022/10/26 10:20:57;;;;;;;;;;;;;;;16.10;97.43;68554.53;4952862;29;20005;-85
2022/10/26 10:23:33;;;;;;;;;;;;;;;16.20;97.60;68566.50;4953658;28;19914;-84
2022/10/26 10:25:59;;;;;;;;;;;;;;;16.22;96.82;68568.78;4927458;29;19950;-84
2022/10/26 10:28:26;;;;;;;;;;;;;;;16.27;96.36;68573.91;4947341;29;19921;-85
2022/10/26 10:30:53;;;;;;;;;;;;;;;16.34;97.11;68581.31;4951668;28;20009;-84
2022/10/26 10:33:18;;;;;;;;;;;;;;;16.41;96.19;68589.88;4946516;28;20416;-85
2022/10/26 10:35:48;;;;;;;;;;;;;;;16.52;96.62;68601.84;4945153;29;19927;-85
2022/10/26 10:38:18;;;;;;;;;;;;;;;16.61;95.77;68611.53;4954693;29;19978;-84
2022/10/26 10:40:58;;;;;;;;;;;;;;;16.74;95.25;68628.47;4928998;29;20048;-84
2022/10/26 10:43:24;;;;;;;;;;;;;;;16.81;95.30;68631.69;4942160;29;19922;-84
2022/10/26 10:45:51;;;;;;;;;;;;;;;16.89;94.69;68640.81;4953981;28;19914;-85
2022/10/26 10:48:21;;;;;;;;;;;;;;;17.00;94.25;68654.88;4954220;28;19922;-84
2022/10/26 10:50:51;;;;;;;;;;;;;;;17.07;93.87;68663.44;4945450;29;19918;-84
2022/10/26 10:53:18;;;;;;;;;;;;;;;17.11;92.73;68667.44;4950626;28;19945;-84
2022/10/26 10:55:47;;;;;;;;;;;;;;;17.21;93.59;68681.53;4952639;28;19928;-85
2022/10/26 10:58:18;;;;;;;;;;;;;;;17.27;92.30;68683.00;4944936;29;19915;-85
2022/10/26 11:00:46;;;;;;;;;;;;;;;17.31;92.28;68690.25;4946288;29;19993;-85
2022/10/26 11:03:13;;;;;;;;;;;;;;;;;;4952713;28;19918;-86
2022/10/26 11:06:08;;;;;;;;;;;;;;;17.41;91.85;68697.84;4952909;28;19918;-85
2022/10/26 11:08:52;;;;;;;;;;;;;;;17.46;91.35;68703.53;4936957;28;19921;-85
2022/10/26 11:11:17;;;;;;;;;;;;;;;17.48;90.75;68706.38;4935316;29;19925;-85
2022/10/26 11:13:59;;;;;;;;;;;;;;;17.52;91.53;68713.06;4943978;29;19934;-85
2022/10/26 11:16:30;;;;;;;;;;;;;;;17.56;90.49;68709.56;4946894;29;20409;-85
2022/10/26 11:18:55;;;;;;;;;;;;;;;17.63;90.57;68728.31;4952218;29;19941;-84
2022/10/26 11:21:20;;;;;;;;;;;;;;;17.73;90.85;68734.34;4951228;29;20317;-85
2022/10/26 11:23:49;;;;;;;;;;;;;;;17.77;90.19;68738.91;4933398;29;19922;-86
2022/10/26 11:26:23;;;;;;;;;;;;;;;17.78;90.10;68740.06;4934897;29;19953;-85
2022/10/26 11:28:54;;;;;;;;;;;;;;;17.87;89.48;68751.91;4951309;29;19914;-86
2022/10/26 11:31:26;;;;;;;;;;;;;;;17.86;89.60;68751.31;4952467;29;19918;-85
2022/10/26 11:34:15;;;;;;;;;;;;;;;17.88;89.43;68753.03;4946287;28;19919;-85
2022/10/26 11:36:42;;;;;;;;;;;;;;;17.92;89.16;68755.47;4940269;29;19921;-85
2022/10/26 11:39:19;;;;;;;;;;;;;;;17.96;90.02;68759.47;4959624;29;19914;-85
2022/10/26 11:41:50;;;;;;;;;;;;;;;18.05;89.76;68767.03;4964594;29;20476;-85
2022/10/26 11:44:41;;;;;;;;;;;;;;;18.22;90.30;68788.56;4960202;28;19915;-87
2022/10/26 11:47:13;;;;;;;;;;;;;;;18.35;90.35;68803.41;4937434;28;20192;-85
2022/10/26 11:49:43;;;;;;;;;;;;;;;18.41;88.96;68815.06;4958516;28;19919;-85
2022/10/26 11:52:16;;;;;;;;;;;;;;;18.51;90.06;68821.09;4947032;29;20401;-85
2022/10/26 11:54:46;;;;;;;;;;;;;;;18.63;88.62;68836.94;4966612;28;20009;-84
2022/10/26 11:57:13;;;;;;;;;;;;;;;18.70;89.31;68847.63;4955947;28;19921;-85
2022/10/26 11:59:42;;;;;;;;;;;;;;;18.75;88.02;68850.09;4951561;29;19954;-85
2022/10/26 12:02:15;;;;;;;;;;;;;;;18.82;88.49;68850.00;4952494;29;19949;-85
2022/10/26 12:04:42;;;;;;;;;;;;;;;18.94;88.53;68871.78;4934694;29;19941;-85
2022/10/26 12:07:12;;;;;;;;;;;;;;;18.98;86.81;68873.66;4935784;29;19914;-85
2022/10/26 12:09:40;;;;;;;;;;;;;;;18.93;86.88;68873.34;4952333;29;19945;-85
2022/10/26 12:12:13;;;;;;;;;;;;;;;18.84;86.89;68857.66;4952761;28;20560;-85
2022/10/26 12:14:38;;;;;;;;;;;;;;;18.91;87.54;68865.66;4951683;28;20424;-85
2022/10/26 12:17:22;;;;;;;;;;;;;;;19.05;89.11;68887.06;4959336;29;19918;-87
2022/10/26 12:19:53;;;;;;;;;;;;;;;19.04;87.85;68883.19;4965553;29;19922;-84
2022/10/26 12:22:20;;;;;;;;;;;;;;;19.07;87.21;68883.38;4960564;29;20006;-84
2022/10/26 12:25:02;;;;;;;;;;;;;;;18.93;87.63;68870.63;4956772;29;19961;-84
2022/10/26 12:27:31;;;;;;;;;;;;;;;19.02;89.28;68878.22;4965254;29;19915;-84
2022/10/26 12:30:15;;;;;;;;;;;;;;;19.14;88.88;68891.38;4953007;29;20046;-85
2022/10/26 12:32:40;;;;;;;;;;;;;;;19.16;88.08;68890.94;4950825;29;20450;-83
2022/10/26 12:35:24;;;;;;;;;;;;;;;19.22;88.17;68902.63;4939024;28;19923;-84
2022/10/26 12:37:49;;;;;;;;;;;;;;;19.22;87.73;68905.31;4938209;29;19970;-84
2022/10/26 12:40:29;;;;;;;;;;;;;;;19.19;87.16;68899.78;4950556;29;19918;-85
2022/10/26 12:42:55;;;;;;;;;;;;;;;19.24;88.27;68902.78;4946598;28;19954;-84
2022/10/26 12:45:21;;;;;;;;;;;;;;;19.28;88.66;68906.78;4950007;29;19972;-84
2022/10/26 12:47:46;;;;;;;;;;;;;;;19.28;86.87;68906.78;4930907;28;19922;-83
2022/10/26 12:50:11;;;;;;;;;;;;;;;19.30;87.59;68909.63;4951527;28;20899;-84
2022/10/26 12:52:39;;;;;;;;;;;;;;;19.28;87.15;68910.06;4950413;28;20413;-84
2022/10/26 12:55:11;;;;;;;;;;;;;;;19.36;88.29;68916.50;4950630;28;20301;-84
2022/10/26 12:57:46;;;;;;;;;;;;;;;19.50;88.60;68937.31;4952601;28;19922;-85
2022/10/26 13:00:13;;;;;;;;;;;;;;;19.59;86.73;68939.50;4933154;29;20009;-83
2022/10/26 13:02:57;;;;;;;;;;;;;;;19.53;86.41;68938.03;4948766;29;19918;-86
2022/10/26 13:05:44;;;;;;;;;;;;;;;19.76;85.89;68963.22;4951064;29;20382;-85
2022/10/26 13:08:10;;;;;;;;;;;;;;;19.71;85.12;68957.47;4917289;29;19925;-84
2022/10/26 13:10:37;;;;;;;;;;;;;;;19.68;85.19;68954.66;4949711;29;19922;-84
2022/10/26 13:13:04;;;;;;;;;;;;;;;19.59;85.96;68942.22;4948902;28;19914;-85
2022/10/26 13:15:39;;;;;;;;;;;;;;;19.48;84.65;68929.06;4949319;28;20305;-84
2022/10/26 13:18:09;;;;;;;;;;;;;;;19.54;86.22;68939.19;4932207;29;20286;-84
2022/10/26 13:20:35;;;;;;;;;;;;;;;19.69;86.48;68949.81;4952602;28;19961;-85